Terminal Aerodrome Forecast
Issued by NWS Binghamton, NY

Current Version | Previous Version | Text Only | Print | Product List | Glossary On
Versions: 1 2 3 4 5 6 7 8 9 10 11 12 13 14 15 16 17 18 19 20 21 22 23
000
FTUS41 KBGM 130909 AAA
TAFSYR
TAF AMD
KSYR 130909Z 1309/1406 28013G27KT 2SM -SN OVC020
      TEMPO 1309/1313 3/4SM -SHSN BLSN OVC012
     FM131300 29016G29KT 1SM -SN BLSN OVC015
     FM131900 29014G25KT 2SM -SN OVC015
     FM140000 26009G17KT 2SM -SHSN OVC025=

USA.gov is the U.S. government's official web portal to all federal, state and local government web resources and services.